createdAt,value
2023-05-03T00:00:07.266Z,30.25
2023-05-03T00:01:07.050Z,30.26
2023-05-03T00:02:07.711Z,30.25
2023-05-03T00:03:07.462Z,30.28
2023-05-03T00:04:08.140Z,30.29
2023-05-03T00:05:08.163Z,30.30
2023-05-03T00:06:07.233Z,30.30
2023-05-03T00:07:07.243Z,30.28
2023-05-03T00:08:07.268Z,30.29
2023-05-03T00:09:07.220Z,30.27
2023-05-03T00:10:07.198Z,30.29
2023-05-03T00:11:08.261Z,30.29
2023-05-03T00:12:08.213Z,30.27
2023-05-03T00:13:07.279Z,30.28
2023-05-03T00:14:07.186Z,30.26
2023-05-03T00:15:08.159Z,30.26
2023-05-03T00:16:07.324Z,30.27
2023-05-03T00:17:07.256Z,30.28
2023-05-03T00:18:07.765Z,30.24
2023-05-03T00:19:14.914Z,30.24
2023-05-03T00:20:08.165Z,30.28
2023-05-03T00:21:07.149Z,30.29
2023-05-03T00:22:07.361Z,30.28
2023-05-03T00:23:07.182Z,30.28
2023-05-03T00:24:07.179Z,30.30
2023-05-03T00:25:07.111Z,30.29
2023-05-03T00:26:07.289Z,30.30
2023-05-03T00:27:08.110Z,30.32
2023-05-03T00:28:07.514Z,30.30
2023-05-03T00:29:07.225Z,30.29
2023-05-03T00:30:07.125Z,30.27
2023-05-03T00:31:07.290Z,30.29
2023-05-03T00:32:07.132Z,30.30
2023-05-03T00:33:07.268Z,30.28
2023-05-03T00:34:07.092Z,30.29
2023-05-03T00:35:07.199Z,30.30
2023-05-03T00:36:08.100Z,30.29
2023-05-03T00:37:07.062Z,30.30
2023-05-03T00:38:07.521Z,30.29
2023-05-03T00:39:07.065Z,30.27
2023-05-03T00:40:07.063Z,30.30
2023-05-03T00:41:07.132Z,30.30
2023-05-03T00:42:07.295Z,30.26
2023-05-03T00:43:07.047Z,30.28
2023-05-03T00:44:07.439Z,30.30
2023-05-03T00:45:07.992Z,30.28
2023-05-03T00:46:16.161Z,30.29
2023-05-03T00:47:08.280Z,30.30
2023-05-03T00:48:07.331Z,30.28
2023-05-03T00:49:07.168Z,30.29
2023-05-03T00:51:25.947Z,30.38
2023-05-03T00:52:25.820Z,30.33
2023-05-03T00:53:25.881Z,30.35
2023-05-03T00:54:25.816Z,30.30
2023-05-03T00:55:25.846Z,30.31
2023-05-03T00:56:25.813Z,30.29
2023-05-03T00:57:25.799Z,30.30
2023-05-03T00:58:26.858Z,30.27
2023-05-03T00:59:25.784Z,30.27
2023-05-03T01:00:25.792Z,30.27
2023-05-03T01:01:25.843Z,30.26
2023-05-03T01:02:25.835Z,30.26
2023-05-03T01:03:26.798Z,30.27
2023-05-03T01:04:25.753Z,30.26
2023-05-03T01:05:25.741Z,30.25
2023-05-03T01:06:25.856Z,30.25
2023-05-03T01:07:25.819Z,30.24
2023-05-03T01:08:25.715Z,30.26
2023-05-03T01:09:25.749Z,30.25
2023-05-03T01:10:25.720Z,30.26
2023-05-03T01:11:25.700Z,30.26
2023-05-03T01:12:25.739Z,30.23
2023-05-03T01:13:25.813Z,30.23
2023-05-03T01:14:25.710Z,30.25
2023-05-03T01:15:25.676Z,30.24
2023-05-03T01:16:25.695Z,30.26
2023-05-03T01:17:25.684Z,30.25
2023-05-03T01:18:25.660Z,30.25
2023-05-03T01:19:25.676Z,30.23
2023-05-03T01:20:25.639Z,30.22
2023-05-03T01:21:25.656Z,30.23
2023-05-03T01:22:25.638Z,30.21
2023-05-03T01:23:25.706Z,30.23
2023-05-03T01:24:25.645Z,30.22
2023-05-03T01:25:25.678Z,30.23
2023-05-03T01:26:25.767Z,30.22
2023-05-03T01:27:25.828Z,30.22
2023-05-03T01:28:25.840Z,30.23
2023-05-03T01:29:25.867Z,30.22
2023-05-03T01:30:25.919Z,30.22
2023-05-03T01:31:26.044Z,30.23
2023-05-03T01:32:26.088Z,30.23
2023-05-03T01:33:26.056Z,30.21
2023-05-03T01:34:26.105Z,30.22
2023-05-03T01:35:26.192Z,30.21
2023-05-03T01:36:26.211Z,30.20
2023-05-03T01:37:26.280Z,30.18
2023-05-03T01:38:26.331Z,30.20
2023-05-03T01:39:26.368Z,30.17
2023-05-03T01:40:26.365Z,30.15
2023-05-03T01:41:26.447Z,30.15
2023-05-03T01:42:26.461Z,30.19
2023-05-03T01:43:26.502Z,30.19
2023-05-03T01:44:26.608Z,30.18
2023-05-03T01:45:26.651Z,30.17
2023-05-03T01:46:26.761Z,30.16
2023-05-03T01:47:26.736Z,30.20
2023-05-03T01:48:26.687Z,30.17
2023-05-03T01:49:26.724Z,30.17
2023-05-03T01:50:26.791Z,30.16
2023-05-03T01:51:26.838Z,30.18
2023-05-03T01:52:26.857Z,30.18
2023-05-03T01:53:26.984Z,30.17
2023-05-03T01:54:26.909Z,30.20
2023-05-03T01:55:27.614Z,30.19
2023-05-03T01:56:41.636Z,30.18
2023-05-03T01:57:27.260Z,30.22
2023-05-03T01:58:27.409Z,30.18
2023-05-03T01:59:27.348Z,30.18
2023-05-03T02:00:27.391Z,30.19
2023-05-03T02:01:40.234Z,30.19
2023-05-03T02:02:27.452Z,30.20
2023-05-03T02:03:42.639Z,30.19
2023-05-03T02:05:46.394Z,30.26
2023-05-03T02:06:56.406Z,30.24
2023-05-03T02:07:58.635Z,30.22
2023-05-03T02:10:05.873Z,30.30
2023-05-03T02:11:05.591Z,30.27
2023-05-03T02:12:05.666Z,30.24
2023-05-03T02:13:05.632Z,30.21
2023-05-03T02:14:05.322Z,30.22
2023-05-03T02:15:05.238Z,30.20
2023-05-03T02:16:05.337Z,30.19
2023-05-03T02:17:05.256Z,30.17
2023-05-03T02:18:05.386Z,30.17
2023-05-03T02:19:05.209Z,30.18
2023-05-03T02:20:05.496Z,30.18
2023-05-03T02:21:05.215Z,30.16
2023-05-03T02:22:05.233Z,30.16
2023-05-03T02:23:05.204Z,30.17
2023-05-03T02:24:05.214Z,30.15
2023-05-03T02:25:05.183Z,30.16
2023-05-03T02:26:05.162Z,30.12
2023-05-03T02:27:05.177Z,30.14
2023-05-03T02:28:05.205Z,30.14
2023-05-03T02:29:05.143Z,30.15
2023-05-03T02:30:05.691Z,30.11
2023-05-03T02:31:05.239Z,30.12
2023-05-03T02:32:05.110Z,30.13
2023-05-03T02:33:05.220Z,30.14
2023-05-03T02:34:05.207Z,30.15
2023-05-03T02:35:05.151Z,30.14
2023-05-03T02:36:05.128Z,30.12
2023-05-03T02:37:05.083Z,30.11
2023-05-03T02:38:05.163Z,30.10
2023-05-03T02:39:05.091Z,30.11
2023-05-03T02:40:05.213Z,30.11
2023-05-03T02:41:05.037Z,30.14
2023-05-03T02:42:05.042Z,30.12
2023-05-03T02:43:05.098Z,30.11
2023-05-03T02:44:05.015Z,30.14
2023-05-03T02:45:05.090Z,30.13
2023-05-03T02:46:05.047Z,30.12
2023-05-03T02:47:05.020Z,30.10
2023-05-03T02:48:05.100Z,30.10
2023-05-03T02:49:05.030Z,30.09
2023-05-03T02:50:05.341Z,30.09
2023-05-03T02:51:05.042Z,30.07
2023-05-03T02:52:05.048Z,30.06
2023-05-03T02:53:05.086Z,30.09
2023-05-03T02:54:05.098Z,30.11
2023-05-03T02:55:05.105Z,30.08
2023-05-03T02:56:05.145Z,30.07
2023-05-03T02:57:05.152Z,30.08
2023-05-03T02:58:05.212Z,30.08
2023-05-03T02:59:05.229Z,30.10
2023-05-03T03:00:05.454Z,30.09
2023-05-03T03:01:05.298Z,30.08
2023-05-03T03:02:05.327Z,30.10
2023-05-03T03:03:05.450Z,30.09
2023-05-03T03:04:05.444Z,30.07
2023-05-03T03:05:05.360Z,30.08
2023-05-03T03:06:05.712Z,30.10
2023-05-03T03:07:05.492Z,30.10
2023-05-03T03:08:05.498Z,30.09
2023-05-03T03:09:05.461Z,30.07
2023-05-03T03:10:05.673Z,30.07
2023-05-03T03:11:05.549Z,30.05
2023-05-03T03:12:05.600Z,30.05
2023-05-03T03:13:05.597Z,30.07
2023-05-03T03:14:05.609Z,30.06
2023-05-03T03:15:05.684Z,30.07
2023-05-03T03:16:05.713Z,30.07
2023-05-03T03:17:05.716Z,30.07
2023-05-03T03:18:05.757Z,30.07
2023-05-03T03:19:05.762Z,30.05
2023-05-03T03:20:05.781Z,30.09
2023-05-03T03:21:05.824Z,30.07
2023-05-03T03:22:05.824Z,30.07
2023-05-03T03:23:05.876Z,30.07
2023-05-03T03:24:05.945Z,30.06
2023-05-03T03:25:05.985Z,30.07
2023-05-03T03:26:05.981Z,30.06
2023-05-03T03:27:05.973Z,30.06
2023-05-03T03:28:07.028Z,30.04
2023-05-03T03:29:06.033Z,30.06
2023-05-03T03:30:06.349Z,30.08
2023-05-03T03:31:06.118Z,30.05
2023-05-03T03:32:06.321Z,30.04
2023-05-03T03:33:06.205Z,30.05
2023-05-03T03:34:06.175Z,30.05
2023-05-03T03:35:06.292Z,30.02
2023-05-03T03:36:06.265Z,30.03
2023-05-03T03:37:06.339Z,30.03
2023-05-03T03:38:06.323Z,30.06
2023-05-03T03:39:06.317Z,30.04
2023-05-03T03:40:06.406Z,30.05
2023-05-03T03:41:06.387Z,30.05
2023-05-03T03:42:06.482Z,30.05
2023-05-03T03:43:06.596Z,30.05
2023-05-03T03:44:06.509Z,30.08
2023-05-03T03:45:06.489Z,30.04
2023-05-03T03:46:06.578Z,30.05
2023-05-03T03:47:06.585Z,30.04
2023-05-03T03:48:06.615Z,30.05
2023-05-03T03:49:06.565Z,30.02
2023-05-03T03:50:06.815Z,30.07
2023-05-03T03:51:06.661Z,30.05
2023-05-03T03:52:06.670Z,30.05
2023-05-03T03:53:06.702Z,30.05
2023-05-03T03:54:06.736Z,30.02
2023-05-03T03:55:06.791Z,30.04
2023-05-03T03:56:06.830Z,30.04
2023-05-03T03:57:06.814Z,30.05
2023-05-03T03:58:06.946Z,30.05
2023-05-03T03:59:06.904Z,30.04
2023-05-03T04:00:07.003Z,30.04
2023-05-03T04:01:06.976Z,30.04
2023-05-03T04:02:07.131Z,30.04
2023-05-03T04:03:07.889Z,30.03
2023-05-03T04:04:07.178Z,30.03
2023-05-03T04:05:07.106Z,30.03
2023-05-03T04:06:07.163Z,30.00
2023-05-03T04:07:07.204Z,30.02
2023-05-03T04:08:07.212Z,29.99
2023-05-03T04:09:07.315Z,30.02
2023-05-03T04:10:07.361Z,29.99
2023-05-03T04:11:07.255Z,30.00
2023-05-03T04:12:07.302Z,30.03
2023-05-03T04:13:07.305Z,30.03
2023-05-03T04:14:07.352Z,30.04
2023-05-03T04:15:07.399Z,30.02
2023-05-03T04:16:07.404Z,30.02
2023-05-03T04:17:07.547Z,30.02
2023-05-03T04:18:07.519Z,30.02
2023-05-03T04:19:07.594Z,30.01
2023-05-03T04:20:07.747Z,30.02
2023-05-03T04:21:07.573Z,30.01
2023-05-03T04:22:07.601Z,30.02
2023-05-03T04:23:07.660Z,30.00
2023-05-03T04:24:07.654Z,30.00
2023-05-03T04:25:07.656Z,29.97
2023-05-03T04:26:10.387Z,29.97
2023-05-03T04:27:08.686Z,29.99
2023-05-03T04:28:07.655Z,29.97
2023-05-03T04:29:08.004Z,29.95
2023-05-03T04:30:08.576Z,29.97
2023-05-03T04:31:07.793Z,29.94
2023-05-03T04:32:07.670Z,29.97
2023-05-03T04:33:07.711Z,29.97
2023-05-03T04:34:07.695Z,29.98
2023-05-03T04:35:07.660Z,29.98
2023-05-03T04:36:07.692Z,29.99
2023-05-03T04:37:07.633Z,29.98
2023-05-03T04:38:07.672Z,29.99
2023-05-03T04:39:07.663Z,30.00
2023-05-03T04:40:07.621Z,30.00
2023-05-03T04:41:07.577Z,30.00
2023-05-03T04:42:07.668Z,29.98
2023-05-03T04:43:07.594Z,29.97
2023-05-03T04:44:07.627Z,30.00
2023-05-03T04:45:07.633Z,29.98
2023-05-03T04:46:07.723Z,29.99
2023-05-03T04:47:07.829Z,29.97
2023-05-03T04:48:07.714Z,29.96
2023-05-03T04:49:07.690Z,29.95
2023-05-03T04:50:07.727Z,29.95
2023-05-03T04:51:07.768Z,29.97
2023-05-03T04:52:07.803Z,29.96
2023-05-03T04:53:07.809Z,29.98
2023-05-03T04:54:07.811Z,30.00
2023-05-03T04:55:07.859Z,30.01
2023-05-03T04:56:07.972Z,30.00
2023-05-03T04:57:07.941Z,29.97
2023-05-03T04:58:07.959Z,29.97
2023-05-03T04:59:07.982Z,29.95
2023-05-03T05:00:07.989Z,29.95
2023-05-03T05:01:08.135Z,29.96
2023-05-03T05:02:08.382Z,29.96
2023-05-03T05:03:08.257Z,29.94
2023-05-03T05:04:08.451Z,29.95
2023-05-03T05:05:08.125Z,29.97
2023-05-03T05:06:08.249Z,29.96
2023-05-03T05:07:08.205Z,29.96
2023-05-03T05:08:08.342Z,29.96
2023-05-03T05:09:08.239Z,29.95
2023-05-03T05:10:11.144Z,29.95
2023-05-03T05:11:08.343Z,29.91
2023-05-03T05:12:08.779Z,29.92
2023-05-03T05:13:08.868Z,29.91
2023-05-03T05:14:08.867Z,29.75
2023-05-03T05:15:09.312Z,29.62
2023-05-03T05:16:08.269Z,29.54
2023-05-03T05:17:08.295Z,29.54
2023-05-03T05:18:08.411Z,29.52
2023-05-03T05:19:08.551Z,29.55
2023-05-03T05:20:08.982Z,29.57
2023-05-03T05:21:08.363Z,29.59
2023-05-03T05:22:08.341Z,29.57
2023-05-03T05:23:08.315Z,29.62
2023-05-03T05:24:08.158Z,29.59
2023-05-03T05:25:08.124Z,29.69
2023-05-03T05:26:18.168Z,29.78
2023-05-03T05:27:08.579Z,29.90
2023-05-03T05:28:08.230Z,29.84
2023-05-03T05:29:08.094Z,29.82
2023-05-03T05:30:08.141Z,29.78
2023-05-03T05:31:08.144Z,29.71
2023-05-03T05:32:08.140Z,29.81
2023-05-03T05:33:08.139Z,29.89
2023-05-03T05:34:08.116Z,30.13
2023-05-03T05:35:08.039Z,30.41
2023-05-03T05:36:08.142Z,30.50
2023-05-03T05:37:08.074Z,30.72
2023-05-03T05:38:08.040Z,30.82
2023-05-03T05:39:08.032Z,30.88
2023-05-03T05:40:08.087Z,30.93
2023-05-03T05:41:08.016Z,31.29
2023-05-03T05:42:08.076Z,31.40
2023-05-03T05:43:08.624Z,31.60
2023-05-03T05:44:08.988Z,31.59
2023-05-03T05:45:08.097Z,31.69
2023-05-03T05:46:08.007Z,31.55
2023-05-03T05:47:09.045Z,31.45
2023-05-03T05:48:08.049Z,31.16
2023-05-03T05:49:07.947Z,30.96
2023-05-03T05:50:17.036Z,31.01
2023-05-03T05:51:08.970Z,30.99
2023-05-03T05:52:07.957Z,31.75
2023-05-03T05:53:07.912Z,31.56
2023-05-03T05:54:07.978Z,31.75
2023-05-03T05:55:07.998Z,31.88
2023-05-03T05:56:07.920Z,31.89
2023-05-03T05:57:07.908Z,32.04
2023-05-03T05:58:07.936Z,32.19
2023-05-03T05:59:07.908Z,32.19
2023-05-03T06:00:07.921Z,32.31
2023-05-03T06:01:07.889Z,32.68
2023-05-03T06:02:07.945Z,32.96
2023-05-03T06:03:08.020Z,33.04
2023-05-03T06:04:07.875Z,33.07
2023-05-03T06:05:08.125Z,33.02
2023-05-03T06:06:07.962Z,33.09
2023-05-03T06:07:07.868Z,33.43
2023-05-03T06:08:08.131Z,33.38
2023-05-03T06:09:22.995Z,33.57
2023-05-03T06:10:08.814Z,33.64
2023-05-03T06:11:08.027Z,33.64
2023-05-03T06:12:07.800Z,33.66
2023-05-03T06:13:07.788Z,33.85
2023-05-03T06:14:07.758Z,34.03
2023-05-03T06:15:07.899Z,34.10
2023-05-03T06:16:07.754Z,34.45
2023-05-03T06:17:07.858Z,34.33
2023-05-03T06:18:07.863Z,34.44
2023-05-03T06:19:07.726Z,34.73
2023-05-03T06:20:07.821Z,34.92
2023-05-03T06:21:08.967Z,34.74
2023-05-03T06:22:09.648Z,34.99
2023-05-03T06:23:07.743Z,35.07
2023-05-03T06:24:07.791Z,35.05
2023-05-03T06:25:07.822Z,35.02
2023-05-03T06:26:07.905Z,35.26
2023-05-03T06:27:08.262Z,35.41
2023-05-03T06:28:08.059Z,35.65
2023-05-03T06:29:08.286Z,35.52
2023-05-03T06:30:08.160Z,35.03
2023-05-03T06:31:08.264Z,34.97
2023-05-03T06:32:08.273Z,35.10
2023-05-03T06:33:08.861Z,35.24
2023-05-03T06:34:10.373Z,35.56
2023-05-03T06:35:08.536Z,35.63
2023-05-03T06:36:09.454Z,35.67
2023-05-03T06:37:09.121Z,35.58
2023-05-03T06:38:08.575Z,35.60
2023-05-03T06:39:08.685Z,35.73
2023-05-03T06:40:08.981Z,35.79
2023-05-03T06:41:09.243Z,35.83
2023-05-03T06:42:09.144Z,35.70
2023-05-03T06:43:08.834Z,35.93
2023-05-03T06:44:10.045Z,35.97
2023-05-03T06:45:09.912Z,36.00
2023-05-03T06:46:09.226Z,36.13
2023-05-03T06:47:09.262Z,36.16
2023-05-03T06:48:09.302Z,36.21
2023-05-03T06:49:09.848Z,36.32
2023-05-03T06:50:09.054Z,36.33
2023-05-03T06:51:09.132Z,36.41
2023-05-03T06:52:11.488Z,36.45
2023-05-03T06:53:09.601Z,36.52
2023-05-03T06:54:10.086Z,36.53
2023-05-03T06:55:09.458Z,36.54
2023-05-03T06:56:09.430Z,36.62
2023-05-03T06:57:09.448Z,36.42
2023-05-03T06:58:09.450Z,36.75
2023-05-03T06:59:09.493Z,36.74
2023-05-03T07:00:09.513Z,36.80
2023-05-03T07:01:09.592Z,36.82
2023-05-03T07:02:09.679Z,36.84
2023-05-03T07:03:09.660Z,36.95
2023-05-03T07:04:09.813Z,36.96
2023-05-03T07:05:09.654Z,37.05
2023-05-03T07:06:09.718Z,37.12
2023-05-03T07:07:09.713Z,37.01
2023-05-03T07:08:09.684Z,37.22
2023-05-03T07:09:10.154Z,37.22
2023-05-03T07:10:09.749Z,37.01
2023-05-03T07:11:09.821Z,37.21
2023-05-03T07:12:09.765Z,37.23
2023-05-03T07:13:10.186Z,35.29
2023-05-03T07:14:09.809Z,34.60
2023-05-03T07:15:09.793Z,34.75
2023-05-03T07:16:09.880Z,35.21
2023-05-03T07:17:09.900Z,34.49
2023-05-03T07:18:09.983Z,34.11
2023-05-03T07:19:10.133Z,35.49
2023-05-03T07:20:09.913Z,36.19
2023-05-03T07:21:10.037Z,36.18
2023-05-03T07:22:11.144Z,36.01
2023-05-03T07:23:10.144Z,36.16
2023-05-03T07:24:11.223Z,36.18
2023-05-03T07:25:10.061Z,36.11
2023-05-03T07:26:10.039Z,35.84
2023-05-03T07:27:10.065Z,36.10
2023-05-03T07:28:10.079Z,36.19
2023-05-03T07:29:10.091Z,36.12
2023-05-03T07:30:10.106Z,35.80
2023-05-03T07:31:10.134Z,33.80
2023-05-03T07:32:10.171Z,33.71
2023-05-03T07:33:10.377Z,33.87
2023-05-03T07:34:10.243Z,33.63
2023-05-03T07:35:10.220Z,33.50
2023-05-03T07:36:10.237Z,33.27
2023-05-03T07:37:10.262Z,33.17
2023-05-03T07:38:10.735Z,33.08
2023-05-03T07:39:10.390Z,32.89
2023-05-03T07:40:10.386Z,32.70
2023-05-03T07:41:10.443Z,32.60
2023-05-03T07:42:10.539Z,32.45
2023-05-03T07:43:10.506Z,32.36
2023-05-03T07:44:10.552Z,32.30
2023-05-03T07:45:10.647Z,32.16
2023-05-03T07:46:10.704Z,31.99
2023-05-03T07:47:10.739Z,31.94
2023-05-03T07:48:10.851Z,31.84
2023-05-03T07:49:10.817Z,31.75
2023-05-03T07:50:10.855Z,31.58
2023-05-03T07:51:10.917Z,31.53
2023-05-03T07:52:11.051Z,31.53
2023-05-03T07:53:11.036Z,31.47
2023-05-03T07:54:11.144Z,31.44
2023-05-03T07:55:11.169Z,31.32
2023-05-03T07:56:11.236Z,31.01
2023-05-03T07:57:11.293Z,29.94
2023-05-03T07:58:11.337Z,30.71
2023-05-03T07:59:11.410Z,31.33
2023-05-03T08:00:11.447Z,31.36
2023-05-03T08:01:11.486Z,30.54
2023-05-03T08:02:11.672Z,30.87
2023-05-03T08:03:11.771Z,30.90
2023-05-03T08:04:11.892Z,30.89
2023-05-03T08:05:12.758Z,30.84
2023-05-03T08:06:11.767Z,30.86
2023-05-03T08:07:11.814Z,30.83
2023-05-03T08:08:11.884Z,30.75
2023-05-03T08:09:11.915Z,30.70
2023-05-03T08:10:11.943Z,30.60
2023-05-03T08:11:12.008Z,30.50
2023-05-03T08:12:12.079Z,30.47
2023-05-03T08:13:12.226Z,30.47
2023-05-03T08:14:12.207Z,30.45
2023-05-03T08:15:12.526Z,30.47
2023-05-03T08:16:12.487Z,30.42
2023-05-03T08:17:12.560Z,30.37
2023-05-03T08:18:12.448Z,30.36
2023-05-03T08:19:12.505Z,30.30
2023-05-03T08:20:12.582Z,30.14
2023-05-03T08:21:12.627Z,30.04
2023-05-03T08:22:12.714Z,30.07
2023-05-03T08:23:13.165Z,30.05
2023-05-03T08:24:13.689Z,30.08
2023-05-03T08:25:12.776Z,30.09
2023-05-03T08:26:12.773Z,30.00
2023-05-03T08:27:12.739Z,29.97
2023-05-03T08:28:12.752Z,29.98
2023-05-03T08:29:12.734Z,29.98
2023-05-03T08:30:12.747Z,29.96
2023-05-03T08:31:12.786Z,29.95
2023-05-03T08:32:12.693Z,29.97
2023-05-03T08:33:13.319Z,29.97
2023-05-03T08:34:13.246Z,29.89
2023-05-03T08:35:12.681Z,29.82
2023-05-03T08:36:12.692Z,29.75
2023-05-03T08:37:12.674Z,29.71
2023-05-03T08:38:12.694Z,29.66
2023-05-03T08:39:12.698Z,29.67
2023-05-03T08:40:12.685Z,29.71
2023-05-03T08:41:12.737Z,29.69
2023-05-03T08:42:12.644Z,29.68
2023-05-03T08:43:12.663Z,29.63
2023-05-03T08:44:12.650Z,29.52
2023-05-03T08:45:12.691Z,29.54
2023-05-03T08:46:12.731Z,29.48
2023-05-03T08:47:12.711Z,29.35
2023-05-03T08:48:13.052Z,29.30
2023-05-03T08:49:12.772Z,29.34
2023-05-03T08:50:12.575Z,29.47
2023-05-03T08:51:12.702Z,29.36
2023-05-03T08:52:12.609Z,29.27
2023-05-03T08:53:12.698Z,29.28
2023-05-03T08:54:12.748Z,29.31
2023-05-03T08:55:13.620Z,29.29
2023-05-03T08:56:12.601Z,29.26
2023-05-03T08:57:12.542Z,29.19
2023-05-03T08:58:12.530Z,29.01
2023-05-03T08:59:12.635Z,29.58
2023-05-03T09:00:13.007Z,30.31
2023-05-03T09:01:12.559Z,30.60
2023-05-03T09:02:12.722Z,31.22
2023-05-03T09:03:12.819Z,31.11
2023-05-03T09:04:12.989Z,30.58
2023-05-03T09:05:12.839Z,30.33
2023-05-03T09:06:12.901Z,30.53
2023-05-03T09:07:12.878Z,30.91
2023-05-03T09:08:13.016Z,30.83
2023-05-03T09:09:12.981Z,30.78
2023-05-03T09:10:13.044Z,30.14
2023-05-03T09:11:13.070Z,29.68
2023-05-03T09:12:13.160Z,29.26
2023-05-03T09:13:13.208Z,29.23
2023-05-03T09:14:13.326Z,28.91
2023-05-03T09:15:13.287Z,28.83
2023-05-03T09:16:13.451Z,28.79
2023-05-03T09:17:13.387Z,28.56
2023-05-03T09:18:13.454Z,28.50
2023-05-03T09:19:13.376Z,28.46
2023-05-03T09:20:13.382Z,28.39
2023-05-03T09:21:13.374Z,28.25
2023-05-03T09:22:13.495Z,27.94
2023-05-03T09:23:13.463Z,28.09
2023-05-03T09:24:14.070Z,28.30
2023-05-03T09:25:13.401Z,28.79
2023-05-03T09:26:13.417Z,28.99
2023-05-03T09:27:13.451Z,28.76
2023-05-03T09:28:13.453Z,28.75
2023-05-03T09:29:13.508Z,28.40
2023-05-03T09:30:13.456Z,28.38
2023-05-03T09:31:13.647Z,28.28
2023-05-03T09:32:13.470Z,28.23
2023-05-03T09:33:13.477Z,28.28
2023-05-03T09:34:13.709Z,28.20
2023-05-03T09:35:13.445Z,28.13
2023-05-03T09:36:13.460Z,28.01
2023-05-03T09:37:13.542Z,28.06
2023-05-03T09:38:13.691Z,28.11
2023-05-03T09:39:13.449Z,28.05
2023-05-03T09:40:13.451Z,28.09
2023-05-03T09:41:13.420Z,28.09
2023-05-03T09:42:13.436Z,27.96
2023-05-03T09:43:13.424Z,27.75
2023-05-03T09:44:13.466Z,27.77
2023-05-03T09:45:13.439Z,27.64
2023-05-03T09:46:13.474Z,27.51
2023-05-03T09:47:13.470Z,27.55
2023-05-03T09:48:13.444Z,27.53
2023-05-03T09:49:13.883Z,27.33
2023-05-03T09:50:13.415Z,27.35
2023-05-03T09:51:13.419Z,27.35
2023-05-03T09:52:13.441Z,27.32
2023-05-03T09:53:13.432Z,27.32
2023-05-03T09:54:13.426Z,27.18
2023-05-03T09:55:13.460Z,27.15
2023-05-03T09:56:13.479Z,27.08
2023-05-03T09:57:13.418Z,27.13
2023-05-03T09:58:13.503Z,27.17
2023-05-03T09:59:13.449Z,27.05
2023-05-03T10:00:13.425Z,26.98
2023-05-03T10:01:13.535Z,26.87
2023-05-03T10:02:13.409Z,26.89
2023-05-03T10:03:13.441Z,26.98
2023-05-03T10:04:13.455Z,26.88
2023-05-03T10:05:13.416Z,26.78
2023-05-03T10:06:13.455Z,26.87
2023-05-03T10:07:13.490Z,26.87
2023-05-03T10:08:13.410Z,26.70
2023-05-03T10:09:13.448Z,26.73
2023-05-03T10:10:13.550Z,26.76
2023-05-03T10:11:13.470Z,26.84
2023-05-03T10:12:13.557Z,26.77
2023-05-03T10:13:13.452Z,26.83
2023-05-03T10:14:13.454Z,26.85
2023-05-03T10:15:13.450Z,26.71
2023-05-03T10:16:13.553Z,26.65
2023-05-03T10:17:13.477Z,26.63
2023-05-03T10:18:13.586Z,26.67
2023-05-03T10:19:14.422Z,26.59
2023-05-03T10:20:13.487Z,26.62
2023-05-03T10:21:13.503Z,26.61
2023-05-03T10:22:13.486Z,26.58
2023-05-03T10:23:13.788Z,26.64
2023-05-03T10:24:13.514Z,26.70
2023-05-03T10:25:15.344Z,26.62
2023-05-03T10:26:13.729Z,26.64
2023-05-03T10:27:13.578Z,26.68
2023-05-03T10:28:13.532Z,26.70
2023-05-03T10:29:13.542Z,26.74
2023-05-03T10:30:13.520Z,26.73
2023-05-03T10:31:13.550Z,26.77
2023-05-03T10:32:13.545Z,26.70
2023-05-03T10:33:13.664Z,26.62
2023-05-03T10:34:13.632Z,26.59
2023-05-03T10:35:13.586Z,26.62
2023-05-03T10:36:13.582Z,26.42
2023-05-03T10:37:13.635Z,26.43
2023-05-03T10:38:13.572Z,26.29
2023-05-03T10:39:13.620Z,26.23
2023-05-03T10:40:13.860Z,26.26
2023-05-03T10:41:13.654Z,26.06
2023-05-03T10:42:13.601Z,26.09
2023-05-03T10:43:13.576Z,26.11
2023-05-03T10:44:13.591Z,26.01
2023-05-03T10:45:13.629Z,25.86
2023-05-03T10:46:14.341Z,25.97
2023-05-03T10:47:13.645Z,25.87
2023-05-03T10:48:13.659Z,25.80
2023-05-03T10:49:13.643Z,25.72
2023-05-03T10:50:13.681Z,25.75
2023-05-03T10:51:13.660Z,25.82
2023-05-03T10:52:13.698Z,25.66
2023-05-03T10:53:13.728Z,25.73
2023-05-03T10:54:13.767Z,25.65
2023-05-03T10:55:13.731Z,25.69
2023-05-03T10:56:13.767Z,25.70
2023-05-03T10:57:13.839Z,25.67
2023-05-03T10:58:14.477Z,25.51
2023-05-03T10:59:13.817Z,25.54
2023-05-03T11:00:13.825Z,25.59
2023-05-03T11:01:13.885Z,25.57
2023-05-03T11:02:13.862Z,25.63
2023-05-03T11:03:13.940Z,25.64
2023-05-03T11:04:14.023Z,25.68
2023-05-03T11:05:13.962Z,25.74
2023-05-03T11:06:13.984Z,25.81
2023-05-03T11:07:14.022Z,25.82
2023-05-03T11:08:14.299Z,25.83
2023-05-03T11:09:14.060Z,25.89
2023-05-03T11:10:14.214Z,25.83
2023-05-03T11:11:14.204Z,25.82
2023-05-03T11:12:14.158Z,25.80
2023-05-03T11:13:14.158Z,25.91
2023-05-03T11:14:14.176Z,25.90
2023-05-03T11:15:14.315Z,25.78
2023-05-03T11:16:14.276Z,25.80
2023-05-03T11:17:14.230Z,25.87
2023-05-03T11:18:14.308Z,25.91
2023-05-03T11:19:14.266Z,26.01
2023-05-03T11:20:14.386Z,25.86
2023-05-03T11:21:14.327Z,25.87
2023-05-03T11:22:14.357Z,25.98
2023-05-03T11:23:14.382Z,26.00
2023-05-03T11:24:14.377Z,25.98
2023-05-03T11:25:14.434Z,25.90
2023-05-03T11:26:14.416Z,25.93
2023-05-03T11:27:14.522Z,26.00
2023-05-03T11:28:14.464Z,26.05
2023-05-03T11:29:14.600Z,25.98
2023-05-03T11:30:14.550Z,25.91
2023-05-03T11:31:14.523Z,25.85
2023-05-03T11:32:14.580Z,25.74
2023-05-03T11:33:14.619Z,25.78
2023-05-03T11:34:14.590Z,26.02
2023-05-03T11:35:14.619Z,25.86
2023-05-03T11:36:14.656Z,25.80
2023-05-03T11:37:14.694Z,25.79
2023-05-03T11:38:14.704Z,25.87
2023-05-03T11:39:14.755Z,25.73
2023-05-03T11:40:14.822Z,25.60
2023-05-03T11:41:14.795Z,25.40
2023-05-03T11:42:14.798Z,25.48
2023-05-03T11:43:14.860Z,25.50
2023-05-03T11:44:17.636Z,25.52
2023-05-03T11:45:14.863Z,25.59
2023-05-03T11:46:14.880Z,25.48
2023-05-03T11:47:14.932Z,25.36
2023-05-03T11:48:15.007Z,25.39
2023-05-03T11:49:14.856Z,25.51
2023-05-03T11:50:14.922Z,25.38
2023-05-03T11:51:14.825Z,25.48
2023-05-03T11:52:14.814Z,25.56
2023-05-03T11:53:14.850Z,25.65
2023-05-03T11:54:24.975Z,25.58
2023-05-03T11:55:15.792Z,25.63
2023-05-03T11:56:14.777Z,25.66
2023-05-03T11:57:14.754Z,25.69
2023-05-03T11:58:14.769Z,25.58
2023-05-03T11:59:14.771Z,25.54
2023-05-03T12:00:14.741Z,25.64
2023-05-03T12:01:14.752Z,25.62
2023-05-03T12:02:14.901Z,25.58
2023-05-03T12:03:14.917Z,25.64
2023-05-03T12:04:15.127Z,25.51
2023-05-03T12:05:15.116Z,25.51
2023-05-03T12:06:15.144Z,25.48
2023-05-03T12:07:17.928Z,25.35
2023-05-03T12:08:16.753Z,25.24
2023-05-03T12:09:14.971Z,25.18
2023-05-03T12:10:20.523Z,25.34
2023-05-03T12:11:18.100Z,25.46
2023-05-03T12:12:16.387Z,25.46
2023-05-03T12:13:16.944Z,25.49
2023-05-03T12:14:16.086Z,25.48
2023-05-03T12:15:16.449Z,25.54
2023-05-03T12:16:15.598Z,25.69
2023-05-03T12:17:15.794Z,25.70
2023-05-03T12:18:15.039Z,25.88
2023-05-03T12:20:51.274Z,25.84
2023-05-03T12:22:25.098Z,25.66
2023-05-03T12:23:16.285Z,25.90
2023-05-03T12:24:15.068Z,26.23
2023-05-03T12:25:15.535Z,26.53
2023-05-03T12:26:14.976Z,27.04
2023-05-03T12:27:14.669Z,27.14
2023-05-03T12:29:14.642Z,27.25
2023-05-03T12:31:17.575Z,27.43
2023-05-03T12:32:14.610Z,27.45
2023-05-03T12:33:15.555Z,27.46
2023-05-03T12:34:32.828Z,27.47
2023-05-03T12:35:19.560Z,27.56
2023-05-03T12:36:14.989Z,27.37
2023-05-03T12:37:17.062Z,27.39
2023-05-03T12:38:16.261Z,27.32
2023-05-03T12:40:32.693Z,27.33
2023-05-03T12:41:22.599Z,27.43
2023-05-03T12:42:15.562Z,27.47
2023-05-03T12:43:14.535Z,27.49
2023-05-03T12:44:16.652Z,27.45
2023-05-03T12:45:14.790Z,27.40
2023-05-03T12:46:33.266Z,27.30
2023-05-03T12:47:16.930Z,27.24
2023-05-03T12:48:15.628Z,27.20
2023-05-03T12:49:15.424Z,27.13
2023-05-03T12:50:18.268Z,27.08
2023-05-03T12:53:16.933Z,27.07
2023-05-03T12:54:18.593Z,27.11
2023-05-03T12:56:14.678Z,27.07
2023-05-03T12:57:15.858Z,27.06
2023-05-03T12:58:46.623Z,27.09
2023-05-03T13:00:15.730Z,27.06
2023-05-03T13:02:05.104Z,27.04
2023-05-03T13:05:30.813Z,27.09
2023-05-03T13:06:15.653Z,27.09
2023-05-03T13:07:14.608Z,27.06
2023-05-03T13:08:20.840Z,27.03